Weather reports worldwide

Advertisment
Ile du Levant, France (7678): temperature & dewpoint: 10.12.2018 01:00:00 - 16.12.2018 01:00:00 (CET)Ile du Levant, France (7678): wind speed & gusts: 10.12.2018 01:00:00 - 16.12.2018 01:00:00 (CET)Ile du Levant, France (7678): wind direction: 10.12.2018 01:00:00 - 16.12.2018 01:00:00 (CET)Ile du Levant, France (7678): reduced air pressure: 10.12.2018 01:00:00 - 16.12.2018 01:00:00 (CET)Ile du Levant, France (7678): sunshine duration: 10.12.2018 01:00:00 - 16.12.2018 01:00:00 (CET)Ile du Levant, France (7678): precipitation: 10.12.2018 01:00:00 - 16.12.2018 01:00:00 (CET)
Date & Time tt [°C] td [°C] ff [km/h] ff [kn] fx [km/h] fx [kn] dd ppp [hPa] sd [min] rr [mm]
16.12.2018 01:00:00 10,2 4,1 11 6 15 8 W 1018,7 - -
16.12.2018 00:00:00 10,1 4,0 8 4 13 7 WSW 1019,1 - 0,0
15.12.2018 23:00:00 10,2 3,9 5 3 15 8 WSW 1019,1 0 0,0
15.12.2018 22:00:00 10,1 4,5 9 5 16 9 WSW 1019,5 - -
15.12.2018 21:00:00 10,2 4,6 9 5 26 14 SW 1019,5 0 0,0
15.12.2018 20:00:00 10,3 4,6 9 5 21 11 SSE 1019,5 0 0,0
15.12.2018 19:00:00 9,8 4,0 8 4 22 12 S 1019,3 - -
15.12.2018 18:00:00 9,4 4,0 9 5 21 11 SE 1019,1 0 0,0
15.12.2018 17:00:00 9,8 4,0 8 4 18 10 SSE 1019,2 0 0,0
15.12.2018 16:00:00 11,1 4,1 9 5 18 10 SSE 1018,8 - -
15.12.2018 15:00:00 11,2 3,2 11 6 24 13 SSE 1018,6 48 0,0
15.12.2018 14:00:00 12,0 3,7 11 6 24 13 SSE 1018,5 30 0,0
15.12.2018 13:00:00 12,0 4,5 11 6 31 17 SE 1018,4 - -
15.12.2018 12:00:00 10,0 5,2 18 10 31 17 E 1018,8 - 0,0
15.12.2018 11:00:00 10,5 5,0 16 9 26 14 E 1019,1 54 0,0
15.12.2018 10:00:00 9,2 4,6 9 5 16 9 ENE 1018,8 24 -
15.12.2018 09:00:00 7,8 3,5 11 6 15 8 NE 1018,5 0 0,0
15.12.2018 08:00:00 7,5 3,7 8 4 15 8 NE 1017,9 0 0,0
15.12.2018 07:00:00 7,5 3,7 8 4 16 9 ENE 1017,2 - -
15.12.2018 06:00:00 7,7 3,4 9 5 15 8 NE 1016,7 0 0,0
15.12.2018 05:00:00 8,0 3,1 8 4 16 9 NE 1016,4 0 0,0
15.12.2018 04:00:00 8,1 3,2 9 5 24 13 NE 1016,4 0 0,0
15.12.2018 03:00:00 8,7 3,9 13 7 21 11 NE 1016,2 0 0,0
15.12.2018 02:00:00 9,5 4,5 5 3 15 8 NE 1016,0 0 0,0
15.12.2018 01:00:00 9,8 2,6 9 5 21 11 SSE 1015,5 0 -
15.12.2018 00:00:00 9,6 3,3 11 6 18 10 SE 1015,3 0 0,0
14.12.2018 23:00:00 8,6 3,6 9 5 16 9 ENE 1015,3 0 0,0
14.12.2018 22:00:00 9,0 3,4 11 6 18 10 NE 1015,1 0 -
14.12.2018 21:00:00 9,6 2,7 8 4 21 11 ESE 1014,7 0 0,0
14.12.2018 20:00:00 9,8 2,6 5 3 22 12 N 1014,4 0 0,0
14.12.2018 19:00:00 9,4 2,7 11 6 24 13 N 1014,2 0 -
14.12.2018 18:00:00 9,6 0,7 8 4 15 8 WSW 1013,5 0 0,0
14.12.2018 17:00:00 9,9 3,0 11 6 24 13 WSW 1013,3 42 0,0
14.12.2018 16:00:00 11,1 3,6 16 9 28 15 WSW 1012,9 - -
14.12.2018 15:00:00 11,5 3,8 11 6 22 12 WSW 1012,6 - 0,0
14.12.2018 14:00:00 11,4 2,1 13 7 22 12 W 1012,6 6 0,0
14.12.2018 13:00:00 10,5 1,3 13 7 18 10 W 1013,3 - -
14.12.2018 12:00:00 10,6 0,0 8 4 18 10 NNE 1013,4 0 0,0
14.12.2018 11:00:00 10,4 1,5 11 6 48 26 ENE 1013,1 - 0,0
14.12.2018 10:00:00 10,9 1,7 34 18 54 29 E 1012,2 - -
14.12.2018 09:00:00 9,8 0,1 31 17 57 31 E 1011,7 0 0,0
14.12.2018 08:00:00 9,6 0,2 35 19 59 32 E 1010,5 0 0,0
14.12.2018 07:00:00 9,8 0,1 41 22 65 35 E 1009,9 0 -
14.12.2018 06:00:00 9,5 1,4 42 23 68 37 E 1009,3 0 0,0
14.12.2018 05:00:00 9,5 1,4 48 26 78 42 E 1009,1 0 0,0
14.12.2018 04:00:00 9,6 2,0 55 30 85 46 E 1008,9 0 -
14.12.2018 03:00:00 9,8 3,1 59 32 87 47 E 1008,9 - 0,0
14.12.2018 02:00:00 9,6 2,2 59 32 85 46 E 1008,7 - 0,0
14.12.2018 01:00:00 9,1 2,2 59 32 89 48 E 1008,6 0 -
14.12.2018 00:00:00 9,4 3,4 61 33 94 51 E 1008,6 0 0,0
13.12.2018 23:00:00 9,2 3,6 61 33 91 49 E 1008,4 0 0,0
13.12.2018 22:00:00 8,8 3,8 65 35 89 48 E 1008,2 0 0,0
13.12.2018 21:00:00 8,6 4,2 63 34 89 48 E 1008,1 0 0,2
13.12.2018 20:00:00 8,5 3,9 68 37 93 50 E 1007,7 0 0,4
13.12.2018 19:00:00 8,6 4,4 65 35 89 48 E 1007,4 - -
13.12.2018 18:00:00 8,2 5,0 67 36 91 49 E 1007,4 0 0,8
13.12.2018 17:00:00 8,3 5,2 63 34 85 46 E 1007,5 0 0,8
13.12.2018 16:00:00 8,7 5,8 63 34 89 48 E 1007,6 0 -
13.12.2018 15:00:00 8,8 6,1 59 32 85 46 E 1007,5 0 0,4
13.12.2018 14:00:00 9,1 5,3 55 30 80 43 E 1008,2 0 0,0
13.12.2018 13:00:00 9,4 5,6 57 31 81 44 E 1008,8 - -
13.12.2018 12:00:00 9,4 5,6 55 30 72 39 E 1009,4 0 0,0
13.12.2018 11:00:00 9,6 6,3 48 26 74 40 E 1010,3 0 0,0
13.12.2018 10:00:00 9,5 6,8 48 26 68 37 E 1010,4 0 -
13.12.2018 09:00:00 9,0 6,8 44 24 61 33 E 1010,9 0 0,4
13.12.2018 08:00:00 8,5 6,8 41 22 54 29 E 1011,3 0 1,0
13.12.2018 07:00:00 8,7 6,3 29 16 55 30 E 1011,9 - -
13.12.2018 06:00:00 9,0 6,8 39 21 61 33 E 1011,5 0 0,8
13.12.2018 05:00:00 9,1 6,9 26 14 54 29 ESE 1012,1 0 1,0
13.12.2018 04:00:00 10,4 6,9 31 17 50 27 E 1012,6 - -
13.12.2018 03:00:00 10,5 6,4 34 18 52 28 E 1013,3 0 0,0
13.12.2018 02:00:00 10,6 6,9 28 15 44 24 E 1013,2 0 0,0
13.12.2018 01:00:00 10,8 6,3 22 12 39 21 E 1014,0 0 -
13.12.2018 00:00:00 10,9 6,6 16 9 26 14 ENE 1014,6 0 0,0
12.12.2018 23:00:00 10,7 6,4 13 7 22 12 ENE 1014,8 0 0,0
12.12.2018 22:00:00 11,1 6,2 11 6 22 12 NE 1015,2 0 -
12.12.2018 21:00:00 10,8 6,5 18 10 28 15 E 1014,6 0 0,0
12.12.2018 20:00:00 10,8 6,5 15 8 24 13 ENE 1015,4 0 0,0
12.12.2018 19:00:00 11,3 6,4 13 7 26 14 NE 1015,6 0 -
12.12.2018 18:00:00 11,1 7,2 13 7 21 11 ENE 1015,7 0 0,0
12.12.2018 17:00:00 10,9 6,4 9 5 24 13 ENE 1015,8 0 0,0
12.12.2018 16:00:00 11,8 6,5 16 9 31 17 E 1015,7 - -
12.12.2018 15:00:00 13,2 7,4 16 9 31 17 E 1015,8 36 0,0
12.12.2018 14:00:00 13,2 8,3 16 9 29 16 ENE 1016,3 30 0,0
12.12.2018 13:00:00 12,3 7,4 16 9 29 16 E 1016,5 12 -
12.12.2018 12:00:00 13,4 7,2 11 6 21 11 E 1017,2 36 0,0
12.12.2018 11:00:00 12,8 7,0 11 6 18 10 E 1017,9 48 0,0
12.12.2018 10:00:00 12,3 7,2 8 4 13 7 E 1017,8 24 0,0
12.12.2018 09:00:00 10,7 6,1 8 4 11 6 ENE 1017,5 0 0,0
12.12.2018 08:00:00 10,3 5,9 9 5 13 7 ENE 1017,0 0 0,0
12.12.2018 07:00:00 10,3 5,9 11 6 16 9 ENE 1016,9 - -
12.12.2018 06:00:00 10,1 6,1 11 6 15 8 ENE 1017,0 - 0,0
12.12.2018 05:00:00 10,4 6,5 9 5 16 9 ENE 1017,1 0 0,0
12.12.2018 04:00:00 10,5 6,4 9 5 16 9 ENE 1017,4 - -
12.12.2018 03:00:00 11,2 7,1 9 5 16 9 ENE 1017,7 0 0,0
12.12.2018 02:00:00 11,3 7,2 11 6 21 11 NE 1017,6 0 0,0
12.12.2018 01:00:00 11,9 5,5 11 6 22 12 ESE 1017,7 0 -
12.12.2018 00:00:00 12,1 5,5 9 5 24 13 ESE 1018,0 0 0,0
11.12.2018 23:00:00 11,9 5,7 9 5 21 11 SE 1018,1 0 0,0
11.12.2018 22:00:00 11,5 5,8 13 7 24 13 ESE 1017,9 - -
11.12.2018 21:00:00 11,3 5,2 11 6 24 13 ESE 1017,9 0 0,0
11.12.2018 20:00:00 11,4 5,7 13 7 26 14 ESE 1017,6 0 0,0
11.12.2018 19:00:00 11,4 5,7 15 8 31 17 E 1017,3 - -
11.12.2018 18:00:00 11,6 6,1 18 10 29 16 E 1017,2 0 0,0
11.12.2018 17:00:00 11,6 6,1 16 9 29 16 E 1016,7 24 0,0
11.12.2018 16:00:00 13,0 6,6 18 10 29 16 E 1016,7 60 0,0
11.12.2018 15:00:00 14,1 7,4 21 11 35 19 E 1016,6 48 0,0
11.12.2018 14:00:00 14,4 7,0 26 14 37 20 E 1016,7 54 0,0
11.12.2018 13:00:00 14,1 7,2 21 11 35 19 ENE 1017,1 - -
11.12.2018 12:00:00 13,3 5,7 16 9 35 19 ENE 1017,6 - 0,0
11.12.2018 11:00:00 13,0 5,2 15 8 35 19 ENE 1017,8 60 0,0
11.12.2018 10:00:00 12,4 4,1 15 8 26 14 NE 1017,6 48 0,0
11.12.2018 09:00:00 10,5 2,3 16 9 24 13 N 1017,7 - 0,0
11.12.2018 08:00:00 9,9 1,0 16 9 28 15 NNW 1017,5 - 0,0
11.12.2018 07:00:00 10,1 1,5 15 8 35 19 NNW 1017,4 - -
11.12.2018 06:00:00 10,2 0,8 21 11 35 19 N 1017,5 - 0,0
11.12.2018 05:00:00 10,1 0,9 22 12 41 22 NNW 1017,5 - 0,0
11.12.2018 04:00:00 10,2 1,3 26 14 48 26 NNW 1017,5 - -
11.12.2018 03:00:00 10,2 0,5 31 17 48 26 N 1018,0 - 0,0
11.12.2018 02:00:00 10,4 1,7 26 14 48 26 NNW 1018,2 - 0,0
11.12.2018 01:00:00 10,6 1,7 26 14 39 21 NW 1018,6 - -
11.12.2018 00:00:00 10,7 0,4 22 12 39 21 NW 1018,8 - 0,0
10.12.2018 23:00:00 10,8 1,1 26 14 48 26 NW 1018,9 - 0,0
10.12.2018 22:00:00 10,8 1,1 29 16 48 26 NW 1019,1 - -
10.12.2018 21:00:00 11,0 1,5 37 20 65 35 NW 1019,0 - 0,0
10.12.2018 20:00:00 11,3 1,2 42 23 70 38 NW 1019,2 - 0,0
10.12.2018 19:00:00 11,8 0,8 44 24 72 39 NW 1018,7 - -
10.12.2018 18:00:00 12,4 1,4 55 30 83 45 NW 1018,5 - 0,0
10.12.2018 17:00:00 13,1 0,8 54 29 85 46 WNW 1018,3 - 0,0
10.12.2018 16:00:00 13,9 0,5 61 33 98 53 NW 1018,6 - -
10.12.2018 15:00:00 14,2 0,8 70 38 98 53 NW 1018,2 - 0,0
10.12.2018 14:00:00 14,2 1,5 70 38 104 56 WNW 1017,6 - 0,0
10.12.2018 13:00:00 13,9 2,1 72 39 106 57 WNW 1018,0 - -
10.12.2018 12:00:00 13,6 0,9 74 40 106 57 WNW 1019,4 - 0,0
10.12.2018 11:00:00 13,0 1,0 57 31 81 44 NW 1021,0 - 0,0
10.12.2018 10:00:00 12,4 0,2 54 29 78 42 NW 1021,5 - -
10.12.2018 09:00:00 12,0 0,1 48 26 67 36 NW 1020,7 60 0,0
10.12.2018 08:00:00 11,8 -0,4 50 27 80 43 NW 1020,0 - 0,0
10.12.2018 07:00:00 11,7 0,4 42 23 78 42 WNW 1019,6 - -
10.12.2018 06:00:00 11,8 1,4 44 24 68 37 WNW 1019,4 - 0,0
10.12.2018 05:00:00 12,1 1,7 37 20 74 40 WNW 1020,0 - 0,0
10.12.2018 04:00:00 12,3 1,9 52 28 83 45 WNW 1019,4 - -
10.12.2018 03:00:00 12,5 2,3 57 31 89 48 WNW 1019,5 - 0,0
10.12.2018 02:00:00 12,6 2,2 48 26 80 43 NW 1019,8 - 0,0
10.12.2018 01:00:00 12,5 2,3 52 28 85 46 NW 1020,2 - -

tt = temperature
td = dewpoint
ff = wind speed
fx = gusts
dd = wind direction
ppp = reduced air pressure
sd = sunshine duration
rr = precipitation

Next stations